Kelowna, Canada
Current Conditions -  °F | °C
As of 2:00 PM on Sunday 25 Jan 2015 (Local Time) from CYLW Reporting Station
Few Clouds Few Clouds  
Wind Chill: 36°   Ceiling: Unl
Heat Index: 41°   Visibility: 9mi
Dew Point: 36°   Wind: 8mph
Humidity: 81%   Direction: 150°SSE
Pressure: 30.16"   Gusts: NA
Location:  49.89°N, 119.5°W
Report Text: CYLW 252200Z AUTO 15007KT 9SM FEW015 05/02 A3016 RMK SLP226
Loading
Personal Weather Stations






























Interactive Weather Map New forecast layout! Learn more

10-Day Weather Forecast

Advertisements
Track Severe Weather on mobile